Portada
METAR-TAF:

METAR-TAF

Aeropuertos :

Barquisimeto, Venezuela

Aeropuerto Internacional Jacinto Lara

latitud: 10-04N, longitud: 069-19W, altitud: 613 m

METAR: falta

Hora: 11:19 (15:19 UTC)

Pronóstico

El informe se hizo hace 16 horas y 34 minutos, a las 22:45 UTC
Pronóstico válido del 11 a las 00 UTC al 12 a las 00 UTC
Viento 12 kt del este
Visibilidad 10 km o más
Escasas nubes a una altura de 2000 ft
Nubes dispersas a una altura de 7000 ft
Evolucionando progresivamente
del 11 a las 00 UTC al 11 a las 04 UTC
Viento 8 kt del este-sureste
Visibilidad: 8000 m
Nubes dispersas a una altura de 1300 ft
neblina

TAF: SVBM 102245Z 1100/1200 09012KT 9999 FEW020 SCT070 TX33/1800Z TN23/0800Z BECMG 1100/1104 11008KT 8000 BR SCT013

Observaciones y pronósticos meteorológicos de más de 4000 aeropuertos (mensajes METAR y TAF).

Los puntos amarillos y rojos representan las estaciones disponibles.

Ponga el ratón en el punto deseado para ver el nombre de la estación.

Haga clic para ver las observaciones y los pronósticos meteorológicos.

Para cambiar el mapa : haga clic en los botones verdes con una cruz de color negro para hacer un zoom, en el botón verde con un guión para alejar o en las flechas verdes para mapas adyacentes.


METAR-TAF: